Mayville, North Dakota
Current Conditions -  °F | °C
As of 11:53 PM on Monday 20 Oct 2014 (Local Time) from KGFK Reporting Station
Clear Clear  
Wind Chill: 37°   Ceiling: Unl
Heat Index: 42°   Visibility: 10mi
Dew Point: 37°   Wind: 8mph
Humidity: 82%   Direction: 140°SE
Pressure: 30.05"   Gusts: NA
Location:  47.5°N, 97.32°W
Report Text: KGFK 210453Z AUTO 14007KT 10SM CLR 06/03 A3005 RMK AO2 SLP183 T00560028 TSNO
Loading
Personal Weather Stations






























Interactive Weather Map
Tropical Storm Tracking
New forecast layout! Learn more

10-Day Weather Forecast

Advertisements
Track Severe Weather on mobile